createdAt,value
2023-02-24T00:01:13.021Z,7.60
2023-02-24T00:03:40.953Z,4.37
2023-02-24T00:06:12.039Z,11.27
2023-02-24T00:08:39.406Z,12.87
2023-02-24T00:11:09.898Z,12.40
2023-02-24T00:13:36.501Z,12.67
2023-02-24T00:16:03.857Z,8.83
2023-02-24T00:18:32.228Z,6.73
2023-02-24T00:21:08.281Z,10.00
2023-02-24T00:23:37.154Z,5.10
2023-02-24T00:26:04.548Z,8.70
2023-02-24T00:28:31.220Z,7.97
2023-02-24T00:31:02.492Z,4.80
2023-02-24T00:33:30.907Z,12.67
2023-02-24T00:36:04.748Z,8.30
2023-02-24T00:38:35.916Z,8.13
2023-02-24T00:41:08.316Z,9.83
2023-02-24T00:43:41.226Z,9.37
2023-02-24T00:46:11.507Z,10.50
2023-02-24T00:48:40.597Z,5.13
2023-02-24T00:51:10.344Z,10.63
2023-02-24T00:53:38.448Z,8.80
2023-02-24T00:56:07.312Z,11.93
2023-02-24T00:58:36.759Z,7.13
2023-02-24T01:01:04.935Z,11.47
2023-02-24T01:03:32.168Z,5.80
2023-02-24T01:06:03.192Z,9.53
2023-02-24T01:08:29.747Z,5.83
2023-02-24T01:11:17.513Z,6.37
2023-02-24T01:13:44.397Z,12.93
2023-02-24T01:16:13.241Z,12.13
2023-02-24T01:18:39.623Z,7.27
2023-02-24T01:21:06.003Z,9.90
2023-02-24T01:23:32.590Z,16.50
2023-02-24T01:26:00.077Z,4.97
2023-02-24T01:28:26.920Z,5.10
2023-02-24T01:30:54.208Z,17.30
2023-02-24T01:33:21.668Z,7.37
2023-02-24T01:35:48.334Z,8.50
2023-02-24T01:38:15.112Z,6.33
2023-02-24T01:40:41.520Z,11.93
2023-02-24T01:43:10.474Z,6.73
2023-02-24T01:45:36.955Z,8.97
2023-02-24T01:48:05.483Z,7.07
2023-02-24T01:50:36.685Z,10.10
2023-02-24T01:53:05.095Z,11.90
2023-02-24T01:55:38.318Z,8.07
2023-02-24T01:58:06.702Z,14.03
2023-02-24T02:03:17.335Z,14.00
2023-02-24T02:05:49.679Z,3.83
2023-02-24T02:08:17.736Z,9.77
2023-02-24T02:10:44.805Z,13.10
2023-02-24T02:13:20.496Z,6.87
2023-02-24T02:16:03.073Z,9.67
2023-02-24T02:18:34.506Z,7.80
2023-02-24T02:21:20.062Z,9.80
2023-02-24T02:24:05.546Z,9.67
2023-02-24T02:26:35.764Z,5.57
2023-02-24T02:29:22.283Z,11.20
2023-02-24T02:31:59.262Z,7.57
2023-02-24T02:34:31.637Z,6.87
2023-02-24T02:36:58.058Z,7.57
2023-02-24T02:39:39.721Z,9.77
2023-02-24T02:42:19.374Z,17.63
2023-02-24T02:44:56.308Z,7.10
2023-02-24T02:47:50.634Z,17.40
2023-02-24T02:50:20.153Z,10.20
2023-02-24T02:52:54.116Z,20.17
2023-02-24T02:55:24.579Z,14.40
2023-02-24T02:57:53.337Z,13.63
2023-02-24T03:00:23.082Z,9.50
2023-02-24T03:02:55.426Z,10.90
2023-02-24T03:05:29.708Z,15.53
2023-02-24T03:07:58.527Z,8.90
2023-02-24T03:10:29.109Z,7.40
2023-02-24T03:12:58.471Z,10.53
2023-02-24T03:15:26.258Z,8.93
2023-02-24T03:17:56.572Z,7.60
2023-02-24T03:20:43.975Z,10.63
2023-02-24T03:23:16.885Z,8.63
2023-02-24T03:25:48.053Z,8.07
2023-02-24T03:28:18.277Z,10.50
2023-02-24T03:30:46.913Z,9.70
2023-02-24T03:33:16.962Z,12.10
2023-02-24T03:35:43.486Z,8.60
2023-02-24T03:38:10.765Z,10.00
2023-02-24T03:40:38.401Z,7.53
2023-02-24T03:43:08.098Z,7.93
2023-02-24T03:45:36.417Z,8.77
2023-02-24T03:48:04.060Z,9.50
2023-02-24T03:50:32.429Z,8.60
2023-02-24T03:53:09.647Z,10.30
2023-02-24T03:55:37.781Z,13.40
2023-02-24T03:58:06.980Z,14.17
2023-02-24T04:00:52.167Z,16.20
2023-02-24T04:03:37.449Z,8.27
2023-02-24T04:06:16.083Z,4.47
2023-02-24T04:08:47.535Z,3.33
2023-02-24T04:11:16.973Z,6.43
2023-02-24T04:13:46.484Z,10.13
2023-02-24T04:16:17.083Z,8.00
2023-02-24T04:18:47.361Z,7.90
2023-02-24T04:21:14.426Z,9.27
2023-02-24T04:23:43.464Z,4.97
2023-02-24T04:26:12.765Z,13.70
2023-02-24T04:28:41.057Z,11.13
2023-02-24T04:31:10.690Z,8.67
2023-02-24T04:33:38.630Z,8.67
2023-02-24T04:36:05.488Z,10.73
2023-02-24T04:38:31.879Z,6.50
2023-02-24T04:40:58.261Z,7.30
2023-02-24T04:43:24.784Z,14.63
2023-02-24T04:45:51.708Z,6.40
2023-02-24T04:48:20.085Z,8.87
2023-02-24T04:50:46.553Z,6.90
2023-02-24T04:53:14.844Z,7.00
2023-02-24T04:55:42.725Z,4.87
2023-02-24T04:58:13.492Z,8.00
2023-02-24T05:00:41.666Z,7.60
2023-02-24T05:03:10.717Z,6.57
2023-02-24T05:05:37.153Z,11.63
2023-02-24T05:08:05.088Z,7.33
2023-02-24T05:10:34.921Z,9.87
2023-02-24T05:13:02.555Z,7.70
2023-02-24T05:15:32.575Z,11.87
2023-02-24T05:17:59.926Z,6.87
2023-02-24T05:20:45.977Z,9.20
2023-02-24T05:23:12.675Z,8.43
2023-02-24T05:25:39.062Z,6.73
2023-02-24T05:28:05.637Z,7.90
2023-02-24T05:30:32.873Z,7.13
2023-02-24T05:32:59.460Z,8.00
2023-02-24T05:35:26.187Z,3.43
2023-02-24T05:37:52.526Z,5.53
2023-02-24T05:40:23.381Z,6.43
2023-02-24T05:42:50.057Z,7.60
2023-02-24T05:45:16.486Z,4.87
2023-02-24T05:47:46.453Z,10.53
2023-02-24T05:50:13.162Z,7.37
2023-02-24T05:52:39.504Z,9.53
2023-02-24T05:55:07.303Z,12.17
2023-02-24T05:57:35.616Z,8.73
2023-02-24T06:00:22.657Z,8.37
2023-02-24T06:02:52.696Z,7.87
2023-02-24T06:05:25.876Z,13.47
2023-02-24T06:08:03.096Z,7.10
2023-02-24T06:10:31.628Z,12.00
2023-02-24T06:12:57.966Z,12.97
2023-02-24T06:15:24.346Z,13.40
2023-02-24T06:17:50.751Z,9.27
2023-02-24T06:20:17.344Z,8.67
2023-02-24T06:22:43.692Z,7.20
2023-02-24T06:25:11.902Z,14.40
2023-02-24T06:27:39.215Z,8.93
2023-02-24T06:30:10.433Z,9.77
2023-02-24T06:32:37.134Z,5.77
2023-02-24T06:35:03.724Z,8.27
2023-02-24T06:37:30.154Z,5.83
2023-02-24T06:39:58.374Z,14.13
2023-02-24T06:42:25.164Z,11.60
2023-02-24T06:44:51.564Z,11.33
2023-02-24T06:47:18.126Z,13.70
2023-02-24T06:49:44.577Z,11.67
2023-02-24T06:52:11.967Z,6.17
2023-02-24T06:54:38.562Z,10.37
2023-02-24T06:57:05.031Z,5.83
2023-02-24T06:59:32.289Z,7.83
2023-02-24T07:01:59.510Z,5.37
2023-02-24T07:04:28.531Z,8.83
2023-02-24T07:06:56.713Z,8.63
2023-02-24T07:09:24.823Z,5.63
2023-02-24T07:11:52.569Z,6.20
2023-02-24T07:14:30.616Z,10.97
2023-02-24T07:16:58.459Z,9.67
2023-02-24T07:19:29.698Z,5.97
2023-02-24T07:22:03.820Z,8.17
2023-02-24T07:24:36.581Z,11.07
2023-02-24T07:27:09.487Z,7.37
2023-02-24T07:29:36.340Z,7.37
2023-02-24T07:32:05.908Z,12.30
2023-02-24T07:34:33.728Z,13.00
2023-02-24T07:37:02.768Z,12.17
2023-02-24T07:39:29.256Z,6.30
2023-02-24T07:41:55.779Z,13.97
2023-02-24T07:44:23.685Z,7.63
2023-02-24T07:46:50.350Z,9.40
2023-02-24T07:49:19.860Z,11.93
2023-02-24T07:51:48.070Z,11.73
2023-02-24T07:54:15.822Z,16.67
2023-02-24T07:56:46.217Z,8.57
2023-02-24T07:59:15.687Z,11.60
2023-02-24T08:01:49.784Z,7.50
2023-02-24T08:04:18.103Z,8.17
2023-02-24T08:06:47.856Z,9.83
2023-02-24T08:09:20.684Z,9.93
2023-02-24T08:11:52.305Z,8.33
2023-02-24T08:14:19.735Z,12.87
2023-02-24T08:16:47.545Z,6.70
2023-02-24T08:19:20.632Z,10.10
2023-02-24T08:21:50.416Z,8.97
2023-02-24T08:24:25.364Z,6.77
2023-02-24T08:27:11.056Z,9.30
2023-02-24T08:29:57.867Z,10.13
2023-02-24T08:32:34.011Z,11.90
2023-02-24T08:35:03.597Z,9.20
2023-02-24T08:37:39.797Z,8.60
2023-02-24T08:40:29.713Z,12.77
2023-02-24T08:43:24.467Z,13.93
2023-02-24T08:45:56.761Z,15.67
2023-02-24T08:48:37.070Z,15.47
2023-02-24T08:51:17.924Z,10.63
2023-02-24T08:53:46.830Z,17.83
2023-02-24T08:56:14.369Z,18.00
2023-02-24T08:58:47.143Z,15.20
2023-02-24T09:01:20.203Z,16.40
2023-02-24T09:03:47.899Z,15.23
2023-02-24T09:06:16.921Z,16.70
2023-02-24T09:08:44.562Z,17.27
2023-02-24T09:11:14.009Z,14.57
2023-02-24T09:13:51.862Z,16.60
2023-02-24T09:16:23.605Z,14.57
2023-02-24T09:19:10.799Z,8.67
2023-02-24T09:21:50.153Z,7.27
2023-02-24T09:24:27.084Z,11.87
2023-02-24T09:26:59.626Z,13.23
2023-02-24T09:29:35.753Z,8.77
2023-02-24T09:32:06.374Z,13.40
2023-02-24T09:34:36.947Z,6.27
2023-02-24T09:37:04.371Z,10.50
2023-02-24T09:39:51.517Z,4.80
2023-02-24T09:42:20.015Z,8.37
2023-02-24T09:44:53.058Z,10.63
2023-02-24T09:47:39.649Z,9.13
2023-02-24T09:50:51.532Z,7.57
2023-02-24T09:53:17.398Z,9.87
2023-02-24T09:56:00.314Z,8.80
2023-02-24T09:58:43.067Z,12.77
2023-02-24T10:01:23.001Z,12.87
2023-02-24T10:04:14.813Z,14.47
2023-02-24T10:06:48.015Z,11.63
2023-02-24T10:09:14.421Z,12.23
2023-02-24T10:11:54.337Z,12.93
2023-02-24T10:14:37.922Z,11.40
2023-02-24T10:17:23.196Z,9.77
2023-02-24T10:20:13.988Z,8.63
2023-02-24T10:22:52.728Z,10.70
2023-02-24T10:25:23.476Z,12.23
2023-02-24T10:27:58.510Z,15.43
2023-02-24T10:30:41.133Z,15.43
2023-02-24T10:33:25.504Z,10.10
2023-02-24T10:36:03.503Z,11.17
2023-02-24T10:38:29.864Z,15.07
2023-02-24T10:40:59.804Z,11.70
2023-02-24T10:43:33.959Z,15.50
2023-02-24T10:46:07.721Z,11.67
2023-02-24T10:48:42.620Z,11.00
2023-02-24T10:51:12.497Z,12.07
2023-02-24T10:53:39.275Z,10.43
2023-02-24T10:56:41.713Z,8.97
2023-02-24T10:59:22.598Z,7.90
2023-02-24T11:01:59.384Z,7.10
2023-02-24T11:04:44.247Z,9.83
2023-02-24T11:07:24.605Z,8.90
2023-02-24T11:10:11.988Z,10.00
2023-02-24T11:13:09.417Z,12.57
2023-02-24T11:15:56.540Z,11.27
2023-02-24T11:18:24.596Z,8.00
2023-02-24T11:20:55.405Z,8.90
2023-02-24T11:23:24.735Z,11.07
2023-02-24T11:25:53.512Z,10.03
2023-02-24T11:28:58.639Z,12.33
2023-02-24T11:31:43.926Z,7.30
2023-02-24T11:34:16.374Z,9.60
2023-02-24T11:36:45.457Z,6.47
2023-02-24T11:39:32.100Z,9.53
2023-02-24T11:42:03.734Z,8.53
2023-02-24T11:44:34.892Z,11.00
2023-02-24T11:47:07.503Z,10.77
2023-02-24T11:49:36.870Z,7.93
2023-02-24T11:52:04.715Z,5.90
2023-02-24T11:54:37.734Z,6.23
2023-02-24T11:57:04.908Z,9.43
2023-02-24T11:59:31.343Z,9.77
2023-02-24T12:01:57.740Z,8.13
2023-02-24T12:04:43.004Z,6.47
2023-02-24T12:07:28.534Z,9.03
2023-02-24T12:10:16.158Z,6.43
2023-02-24T12:12:52.813Z,8.70
2023-02-24T12:15:30.981Z,11.27
2023-02-24T12:18:04.389Z,8.33
2023-02-24T12:20:35.631Z,9.37
2023-02-24T12:23:10.973Z,6.93
2023-02-24T12:26:06.950Z,6.50
2023-02-24T12:28:52.305Z,8.60
2023-02-24T12:31:22.192Z,11.37
2023-02-24T12:33:54.933Z,12.43
2023-02-24T12:36:43.747Z,15.83
2023-02-24T12:39:29.872Z,7.40
2023-02-24T12:42:04.655Z,9.33
2023-02-24T12:44:40.028Z,7.87
2023-02-24T12:47:10.069Z,10.90
2023-02-24T12:49:44.690Z,9.60
2023-02-24T12:52:29.004Z,10.43
2023-02-24T12:55:01.360Z,10.33
2023-02-24T12:57:37.233Z,12.57
2023-02-24T13:00:10.612Z,12.27
2023-02-24T13:02:46.068Z,12.70
2023-02-24T13:05:17.931Z,16.20
2023-02-24T13:08:02.900Z,14.33
2023-02-24T13:10:32.333Z,15.10
2023-02-24T13:13:04.858Z,18.47
2023-02-24T13:15:34.136Z,19.17
2023-02-24T13:18:01.202Z,19.70
2023-02-24T13:20:30.759Z,11.03
2023-02-24T13:22:58.992Z,16.27
2023-02-24T13:25:38.516Z,9.23
2023-02-24T13:28:06.536Z,16.17
2023-02-24T13:30:37.892Z,13.83
2023-02-24T13:33:06.298Z,15.07
2023-02-24T13:35:35.551Z,12.07
2023-02-24T13:38:20.897Z,14.77
2023-02-24T13:40:47.346Z,22.17
2023-02-24T13:43:28.049Z,12.10
2023-02-24T13:46:02.266Z,12.67
2023-02-24T13:48:43.345Z,16.37
2023-02-24T13:51:12.804Z,13.33
2023-02-24T13:53:58.903Z,13.67
2023-02-24T13:56:45.034Z,14.80
2023-02-24T13:59:20.207Z,8.43
2023-02-24T14:01:46.590Z,16.03
2023-02-24T14:04:22.645Z,15.00
2023-02-24T14:06:50.637Z,19.03
2023-02-24T14:09:18.741Z,17.53
2023-02-24T14:11:45.117Z,14.37
2023-02-24T14:14:18.043Z,18.67
2023-02-24T14:16:45.604Z,13.67
2023-02-24T14:19:14.382Z,18.13
2023-02-24T14:21:47.458Z,20.37
2023-02-24T14:24:13.824Z,10.87
2023-02-24T14:26:51.254Z,11.70
2023-02-24T14:29:19.144Z,9.97
2023-02-24T14:31:50.275Z,11.77
2023-02-24T14:34:18.831Z,10.70
2023-02-24T14:36:45.731Z,8.97
2023-02-24T14:39:17.517Z,10.93
2023-02-24T14:41:44.800Z,16.53
2023-02-24T14:44:27.992Z,11.20
2023-02-24T14:46:56.508Z,13.00
2023-02-24T14:49:25.230Z,10.90
2023-02-24T14:51:55.599Z,20.63
2023-02-24T14:54:26.193Z,14.43
2023-02-24T14:56:52.726Z,15.10
2023-02-24T14:59:29.361Z,19.20
2023-02-24T15:01:56.720Z,12.33
2023-02-24T15:04:37.409Z,18.23
2023-02-24T15:07:06.158Z,12.93
2023-02-24T15:09:41.096Z,19.73
2023-02-24T15:12:12.816Z,10.40
2023-02-24T15:14:39.669Z,8.33
2023-02-24T15:17:11.877Z,12.63
2023-02-24T15:19:44.094Z,11.30
2023-02-24T15:22:21.939Z,11.73
2023-02-24T15:24:48.700Z,6.97
2023-02-24T15:27:15.066Z,8.13
2023-02-24T15:29:42.896Z,10.03
2023-02-24T15:32:17.713Z,10.10
2023-02-24T15:34:45.421Z,8.07
2023-02-24T15:37:15.880Z,10.53
2023-02-24T15:39:43.437Z,9.47
2023-02-24T15:42:15.960Z,6.70
2023-02-24T15:45:01.041Z,13.03
2023-02-24T15:47:40.348Z,8.90
2023-02-24T15:50:07.045Z,9.63
2023-02-24T15:52:33.468Z,8.30
2023-02-24T15:55:02.376Z,12.63
2023-02-24T15:57:30.001Z,12.03
2023-02-24T15:59:56.457Z,14.97
2023-02-24T16:02:23.512Z,16.20
2023-02-24T16:04:50.637Z,14.17
2023-02-24T16:07:30.643Z,8.60
2023-02-24T16:09:57.710Z,11.67
2023-02-24T16:12:28.772Z,9.70
2023-02-24T16:15:02.194Z,19.93
2023-02-24T16:17:33.878Z,12.30
2023-02-24T16:20:00.546Z,11.23
2023-02-24T16:22:27.260Z,14.70
2023-02-24T16:24:53.690Z,8.27
2023-02-24T16:27:22.000Z,14.47
2023-02-24T16:29:49.708Z,11.53
2023-02-24T16:32:16.354Z,18.63
2023-02-24T16:34:42.862Z,11.53
2023-02-24T16:37:16.191Z,17.83
2023-02-24T16:39:42.581Z,6.80
2023-02-24T16:42:09.990Z,11.00
2023-02-24T16:44:36.615Z,10.77
2023-02-24T16:47:03.761Z,18.03
2023-02-24T16:49:30.263Z,11.80
2023-02-24T16:51:56.636Z,13.90
2023-02-24T16:54:23.506Z,11.07
2023-02-24T16:56:49.848Z,19.97
2023-02-24T16:59:16.203Z,14.30
2023-02-24T17:01:42.662Z,14.90
2023-02-24T17:04:11.092Z,15.83
2023-02-24T17:06:37.814Z,18.27
2023-02-24T17:09:04.366Z,21.47
2023-02-24T17:11:30.909Z,24.43
2023-02-24T17:13:57.305Z,26.23
2023-02-24T17:16:24.218Z,24.17
2023-02-24T17:18:50.736Z,15.93
2023-02-24T17:21:18.150Z,22.63
2023-02-24T17:23:44.898Z,26.03
2023-02-24T17:26:15.343Z,19.93
2023-02-24T17:28:41.776Z,19.60
2023-02-24T17:31:08.230Z,29.53
2023-02-24T17:33:34.709Z,21.93
2023-02-24T17:36:01.113Z,17.60
2023-02-24T17:38:28.679Z,33.93
2023-02-24T17:40:57.517Z,29.53
2023-02-24T17:43:23.947Z,32.67
2023-02-24T17:45:52.388Z,20.63
2023-02-24T17:48:18.908Z,30.77
2023-02-24T17:50:45.578Z,23.80
2023-02-24T17:53:12.023Z,25.00
2023-02-24T17:55:38.511Z,34.93
2023-02-24T17:58:04.913Z,23.57
2023-02-24T18:00:31.438Z,30.67
2023-02-24T18:02:57.974Z,24.80
2023-02-24T18:05:24.728Z,33.07
2023-02-24T18:07:51.653Z,53.33
2023-02-24T18:10:18.165Z,27.07
2023-02-24T18:12:44.596Z,32.07
2023-02-24T18:15:11.017Z,45.60
2023-02-24T18:17:38.059Z,42.17
2023-02-24T18:20:05.400Z,33.93
2023-02-24T18:22:31.929Z,50.23
2023-02-24T18:24:59.333Z,28.23
2023-02-24T18:27:25.728Z,46.27
2023-02-24T18:29:52.786Z,29.80
2023-02-24T18:32:19.384Z,53.43
2023-02-24T18:34:45.900Z,47.07
2023-02-24T18:37:12.468Z,26.57
2023-02-24T18:39:38.903Z,42.50
2023-02-24T18:42:05.356Z,33.50
2023-02-24T18:44:31.852Z,41.53
2023-02-24T18:46:58.266Z,36.73
2023-02-24T18:49:24.864Z,31.13
2023-02-24T18:51:51.276Z,34.90
2023-02-24T18:54:17.719Z,34.67
2023-02-24T18:56:44.050Z,39.97
2023-02-24T18:59:10.498Z,36.20
2023-02-24T19:01:39.132Z,36.30
2023-02-24T19:04:06.824Z,29.03
2023-02-24T19:06:34.414Z,35.87
2023-02-24T19:09:02.095Z,37.33
2023-02-24T19:11:29.829Z,33.67
2023-02-24T19:13:56.340Z,50.43
2023-02-24T19:16:23.236Z,37.10
2023-02-24T19:18:50.469Z,39.77
2023-02-24T19:21:17.021Z,36.80
2023-02-24T19:23:44.534Z,33.83
2023-02-24T19:26:18.357Z,37.50
2023-02-24T19:28:44.836Z,32.13
2023-02-24T19:31:12.118Z,30.53
2023-02-24T19:33:38.637Z,31.30
2023-02-24T19:36:05.216Z,38.43
2023-02-24T19:38:31.616Z,30.13
2023-02-24T19:40:58.442Z,32.10
2023-02-24T19:43:24.829Z,34.53
2023-02-24T19:45:51.338Z,31.30
2023-02-24T19:48:17.872Z,35.77
2023-02-24T19:50:46.498Z,33.07
2023-02-24T19:53:12.912Z,29.77
2023-02-24T19:55:39.364Z,29.33
2023-02-24T19:58:05.845Z,26.37
2023-02-24T20:00:32.271Z,31.33
2023-02-24T20:02:58.662Z,30.27
2023-02-24T20:05:25.130Z,31.10
2023-02-24T20:07:51.587Z,41.83
2023-02-24T20:10:18.496Z,31.37
2023-02-24T20:12:45.038Z,41.13
2023-02-24T20:15:11.822Z,30.80
2023-02-24T20:17:38.397Z,35.27
2023-02-24T20:20:05.066Z,22.70
2023-02-24T20:22:31.531Z,19.93
2023-02-24T20:24:57.971Z,29.17
2023-02-24T20:27:24.402Z,25.23
2023-02-24T20:29:53.387Z,34.43
2023-02-24T20:32:20.054Z,36.63
2023-02-24T20:34:46.567Z,29.40
2023-02-24T20:37:12.958Z,18.80
2023-02-24T20:39:39.986Z,23.47
2023-02-24T20:42:06.440Z,24.07
2023-02-24T20:44:32.897Z,24.40
2023-02-24T20:46:59.379Z,20.90
2023-02-24T20:49:26.961Z,18.57
2023-02-24T20:51:53.347Z,15.30
2023-02-24T20:54:19.878Z,15.90
2023-02-24T20:56:46.964Z,22.73
2023-02-24T20:59:17.855Z,16.07
2023-02-24T21:01:47.155Z,23.30
2023-02-24T21:04:15.129Z,26.00
2023-02-24T21:06:41.556Z,22.57
2023-02-24T21:09:08.419Z,23.33
2023-02-24T21:11:34.862Z,23.97
2023-02-24T21:14:01.594Z,23.03
2023-02-24T21:16:28.086Z,29.67
2023-02-24T21:18:56.370Z,13.73
2023-02-24T21:21:22.815Z,29.93
2023-02-24T21:23:50.438Z,30.83
2023-02-24T21:26:17.281Z,14.23
2023-02-24T21:28:43.916Z,19.13
2023-02-24T21:31:12.030Z,10.97
2023-02-24T21:33:38.620Z,11.93
2023-02-24T21:36:06.700Z,15.67
2023-02-24T21:38:36.548Z,14.87
2023-02-24T21:41:03.577Z,8.87
2023-02-24T21:43:30.068Z,16.93
2023-02-24T21:45:56.549Z,8.07
2023-02-24T21:48:22.985Z,11.33
2023-02-24T21:51:09.583Z,10.30
2023-02-24T21:53:39.189Z,5.27
2023-02-24T21:56:06.563Z,7.93
2023-02-24T21:58:33.139Z,12.80
2023-02-24T22:00:59.623Z,7.63
2023-02-24T22:03:26.256Z,8.30
2023-02-24T22:05:53.752Z,6.87
2023-02-24T22:08:20.166Z,6.33
2023-02-24T22:10:47.404Z,5.97
2023-02-24T22:13:13.804Z,6.63
2023-02-24T22:15:40.210Z,12.70
2023-02-24T22:18:07.502Z,6.60
2023-02-24T22:20:33.913Z,5.80
2023-02-24T22:23:00.418Z,2.07
2023-02-24T22:25:26.838Z,4.10
2023-02-24T22:27:53.257Z,4.10
2023-02-24T22:30:19.732Z,1.27
2023-02-24T22:32:46.170Z,2.33
2023-02-24T22:35:12.616Z,5.20
2023-02-24T22:37:38.973Z,2.30
2023-02-24T22:40:05.679Z,1.70
2023-02-24T22:42:32.088Z,3.23
2023-02-24T22:45:00.305Z,3.80
2023-02-24T22:47:26.741Z,5.33
2023-02-24T22:49:53.103Z,1.83
2023-02-24T22:52:20.368Z,2.10
2023-02-24T22:54:46.833Z,2.43
2023-02-24T22:57:13.180Z,3.17
2023-02-24T22:59:39.546Z,2.90
2023-02-24T23:02:06.286Z,2.40
2023-02-24T23:04:35.186Z,4.23
2023-02-24T23:07:02.028Z,2.90
2023-02-24T23:09:28.732Z,1.20
2023-02-24T23:11:55.120Z,2.73
2023-02-24T23:14:21.689Z,1.87
2023-02-24T23:16:53.517Z,2.40
2023-02-24T23:19:20.858Z,1.33
2023-02-24T23:21:49.702Z,2.00
2023-02-24T23:24:16.198Z,1.77
2023-02-24T23:26:46.883Z,4.00
2023-02-24T23:29:14.140Z,3.57
2023-02-24T23:31:41.068Z,3.43
2023-02-24T23:34:07.974Z,2.80
2023-02-24T23:36:36.089Z,4.23
2023-02-24T23:39:03.034Z,2.07
2023-02-24T23:41:29.443Z,5.57
2023-02-24T23:43:55.923Z,2.20
2023-02-24T23:46:22.823Z,5.40
2023-02-24T23:48:52.720Z,2.73
2023-02-24T23:51:19.217Z,6.57
2023-02-24T23:53:46.317Z,2.27
2023-02-24T23:56:17.430Z,3.13
2023-02-24T23:58:43.936Z,5.67
